Assonet, Massachusetts
Current Conditions -  °F | °C
As of 7:09 AM on Sunday 21 Dec 2014 (Local Time) from KTAN Reporting Station
Haze Haze  
Wind Chill: 36°   Ceiling: 500
Heat Index: 36°   Visibility: 6mi
Dew Point: 34°   Wind: 0mph
Humidity: 93%   Direction: NA
Pressure: 30.28"   Gusts: NA
Location:  41.8°N, 71.07°W
Report Text: KTAN 211209Z AUTO 00000KT 6SM BR BKN005 BKN010 OVC014 02/01 A3028 RMK AO2 CIG 003V008 T00220011
Loading
Personal Weather Stations






























Interactive Weather Map New forecast layout! Learn more

10-Day Weather Forecast

Advertisements
Track Severe Weather on mobile